Terminal Aerodrome Forecast
Issued by NWS

Home | Current Version | Previous Version | Text Only | Print | Product List | Glossary On
Versions: 1 2 3 4 5 6 7 8 9 10 11 12
000
FTUS43 KOAX 302332
TAFCDR
TAF
KCDR 302332Z 0100/0124 05009KT P6SM SCT100
     FM010300 23007KT P6SM SCT100
     FM011500 32010G20KT P6SM SCT060
     FM011900 36012G22KT P6SM SCT060=

USA.gov is the U.S. government's official web portal to all federal, state and local government web resources and services.